sensor_id;sensor_type;location;lat;lon;timestamp;P1;durP1;ratioP1;P2;durP2;ratioP2
12445;SDS011;6287;50.984;7.022;2023-04-03T00:00:42;1.90;;;1.80;;
12445;SDS011;6287;50.984;7.022;2023-04-03T00:03:10;2.10;;;1.90;;
12445;SDS011;6287;50.984;7.022;2023-04-03T00:05:38;2.50;;;2.20;;
12445;SDS011;6287;50.984;7.022;2023-04-03T00:08:06;2.87;;;2.37;;
12445;SDS011;6287;50.984;7.022;2023-04-03T00:10:38;2.30;;;2.10;;
12445;SDS011;6287;50.984;7.022;2023-04-03T00:13:06;5.07;;;2.27;;
12445;SDS011;6287;50.984;7.022;2023-04-03T00:15:34;1.90;;;1.80;;
12445;SDS011;6287;50.984;7.022;2023-04-03T00:18:00;2.43;;;2.33;;
12445;SDS011;6287;50.984;7.022;2023-04-03T00:20:26;2.80;;;2.30;;
12445;SDS011;6287;50.984;7.022;2023-04-03T00:22:52;2.67;;;2.40;;
12445;SDS011;6287;50.984;7.022;2023-04-03T00:25:18;2.97;;;2.03;;
12445;SDS011;6287;50.984;7.022;2023-04-03T00:27:49;2.43;;;2.20;;
12445;SDS011;6287;50.984;7.022;2023-04-03T00:30:16;2.43;;;2.20;;
12445;SDS011;6287;50.984;7.022;2023-04-03T00:32:43;2.90;;;2.30;;
12445;SDS011;6287;50.984;7.022;2023-04-03T00:35:09;1.83;;;1.73;;
12445;SDS011;6287;50.984;7.022;2023-04-03T00:37:35;4.10;;;2.33;;
12445;SDS011;6287;50.984;7.022;2023-04-03T00:40:03;2.37;;;2.17;;
12445;SDS011;6287;50.984;7.022;2023-04-03T00:42:33;1.93;;;1.83;;
12445;SDS011;6287;50.984;7.022;2023-04-03T00:47:30;2.03;;;1.83;;
12445;SDS011;6287;50.984;7.022;2023-04-03T00:49:56;2.20;;;2.10;;
12445;SDS011;6287;50.984;7.022;2023-04-03T00:52:23;2.60;;;2.33;;
12445;SDS011;6287;50.984;7.022;2023-04-03T00:54:56;3.00;;;2.10;;
12445;SDS011;6287;50.984;7.022;2023-04-03T00:57:25;2.43;;;2.23;;
12445;SDS011;6287;50.984;7.022;2023-04-03T00:59:53;2.53;;;2.17;;
12445;SDS011;6287;50.984;7.022;2023-04-03T01:02:21;2.57;;;2.37;;
12445;SDS011;6287;50.984;7.022;2023-04-03T01:04:47;2.23;;;2.10;;
12445;SDS011;6287;50.984;7.022;2023-04-03T01:09:44;2.03;;;1.90;;
12445;SDS011;6287;50.984;7.022;2023-04-03T01:12:19;3.87;;;2.43;;
12445;SDS011;6287;50.984;7.022;2023-04-03T01:15:06;3.90;;;2.10;;
12445;SDS011;6287;50.984;7.022;2023-04-03T01:28:05;2.97;;;2.67;;
12445;SDS011;6287;50.984;7.022;2023-04-03T01:30:33;2.90;;;2.17;;
12445;SDS011;6287;50.984;7.022;2023-04-03T01:33:09;3.73;;;2.40;;
12445;SDS011;6287;50.984;7.022;2023-04-03T01:35:35;2.07;;;1.97;;
12445;SDS011;6287;50.984;7.022;2023-04-03T01:38:07;2.57;;;1.90;;
12445;SDS011;6287;50.984;7.022;2023-04-03T01:40:33;2.00;;;1.90;;
12445;SDS011;6287;50.984;7.022;2023-04-03T01:42:58;2.00;;;1.90;;
12445;SDS011;6287;50.984;7.022;2023-04-03T01:45:24;3.03;;;1.90;;
12445;SDS011;6287;50.984;7.022;2023-04-03T01:47:49;2.40;;;2.20;;
12445;SDS011;6287;50.984;7.022;2023-04-03T01:50:15;2.77;;;2.13;;
12445;SDS011;6287;50.984;7.022;2023-04-03T01:52:41;2.73;;;1.70;;
12445;SDS011;6287;50.984;7.022;2023-04-03T01:55:07;2.50;;;2.30;;
12445;SDS011;6287;50.984;7.022;2023-04-03T01:57:33;3.10;;;2.20;;
12445;SDS011;6287;50.984;7.022;2023-04-03T02:00:00;2.30;;;2.10;;
12445;SDS011;6287;50.984;7.022;2023-04-03T02:02:31;2.50;;;2.30;;
12445;SDS011;6287;50.984;7.022;2023-04-03T02:04:57;3.80;;;2.10;;
12445;SDS011;6287;50.984;7.022;2023-04-03T02:07:22;2.20;;;2.00;;
12445;SDS011;6287;50.984;7.022;2023-04-03T02:09:50;3.53;;;2.10;;
12445;SDS011;6287;50.984;7.022;2023-04-03T02:12:16;2.30;;;2.10;;
12445;SDS011;6287;50.984;7.022;2023-04-03T02:14:44;4.20;;;2.57;;
12445;SDS011;6287;50.984;7.022;2023-04-03T02:17:14;5.23;;;2.37;;
12445;SDS011;6287;50.984;7.022;2023-04-03T02:19:47;2.50;;;2.30;;
12445;SDS011;6287;50.984;7.022;2023-04-03T02:22:12;3.73;;;2.27;;
12445;SDS011;6287;50.984;7.022;2023-04-03T02:24:41;2.00;;;1.87;;
12445;SDS011;6287;50.984;7.022;2023-04-03T02:27:09;3.13;;;2.43;;
12445;SDS011;6287;50.984;7.022;2023-04-03T02:29:35;2.50;;;2.30;;
12445;SDS011;6287;50.984;7.022;2023-04-03T02:32:03;2.30;;;2.10;;
12445;SDS011;6287;50.984;7.022;2023-04-03T02:34:29;2.40;;;2.30;;
12445;SDS011;6287;50.984;7.022;2023-04-03T02:36:55;2.40;;;2.30;;
12445;SDS011;6287;50.984;7.022;2023-04-03T02:39:23;2.13;;;2.03;;
12445;SDS011;6287;50.984;7.022;2023-04-03T02:41:51;3.27;;;2.20;;
12445;SDS011;6287;50.984;7.022;2023-04-03T02:44:16;2.17;;;1.97;;
12445;SDS011;6287;50.984;7.022;2023-04-03T02:46:42;2.33;;;2.17;;
12445;SDS011;6287;50.984;7.022;2023-04-03T02:49:08;3.20;;;2.47;;
12445;SDS011;6287;50.984;7.022;2023-04-03T02:51:36;2.30;;;2.20;;
12445;SDS011;6287;50.984;7.022;2023-04-03T02:54:04;3.50;;;2.00;;
12445;SDS011;6287;50.984;7.022;2023-04-03T02:56:32;2.37;;;2.27;;
12445;SDS011;6287;50.984;7.022;2023-04-03T02:58:58;2.73;;;2.23;;
12445;SDS011;6287;50.984;7.022;2023-04-03T03:01:23;2.83;;;2.33;;
12445;SDS011;6287;50.984;7.022;2023-04-03T03:03:49;4.30;;;2.40;;
12445;SDS011;6287;50.984;7.022;2023-04-03T03:06:15;3.73;;;2.10;;
12445;SDS011;6287;50.984;7.022;2023-04-03T03:08:42;2.50;;;2.03;;
12445;SDS011;6287;50.984;7.022;2023-04-03T03:11:07;3.13;;;2.40;;
12445;SDS011;6287;50.984;7.022;2023-04-03T03:13:33;3.43;;;2.23;;
12445;SDS011;6287;50.984;7.022;2023-04-03T03:15:59;2.30;;;2.10;;
12445;SDS011;6287;50.984;7.022;2023-04-03T03:18:27;2.57;;;2.37;;
12445;SDS011;6287;50.984;7.022;2023-04-03T03:20:56;2.10;;;2.00;;
12445;SDS011;6287;50.984;7.022;2023-04-03T03:23:24;2.67;;;2.47;;
12445;SDS011;6287;50.984;7.022;2023-04-03T03:25:57;4.03;;;2.47;;
12445;SDS011;6287;50.984;7.022;2023-04-03T03:28:27;2.00;;;1.90;;
12445;SDS011;6287;50.984;7.022;2023-04-03T03:30:56;3.60;;;2.20;;
12445;SDS011;6287;50.984;7.022;2023-04-03T03:33:22;2.47;;;2.20;;
12445;SDS011;6287;50.984;7.022;2023-04-03T03:35:51;2.60;;;2.20;;
12445;SDS011;6287;50.984;7.022;2023-04-03T03:38:17;1.93;;;1.80;;
12445;SDS011;6287;50.984;7.022;2023-04-03T03:40:48;2.43;;;2.23;;
12445;SDS011;6287;50.984;7.022;2023-04-03T03:43:14;2.40;;;2.00;;
12445;SDS011;6287;50.984;7.022;2023-04-03T03:45:40;2.20;;;2.00;;
12445;SDS011;6287;50.984;7.022;2023-04-03T03:48:06;2.27;;;2.07;;
12445;SDS011;6287;50.984;7.022;2023-04-03T03:50:32;2.60;;;2.00;;
12445;SDS011;6287;50.984;7.022;2023-04-03T03:52:57;3.10;;;1.73;;
12445;SDS011;6287;50.984;7.022;2023-04-03T03:55:26;2.03;;;1.90;;
12445;SDS011;6287;50.984;7.022;2023-04-03T03:57:52;4.83;;;1.97;;
12445;SDS011;6287;50.984;7.022;2023-04-03T04:00:20;2.43;;;2.23;;
12445;SDS011;6287;50.984;7.022;2023-04-03T04:02:48;2.40;;;2.20;;
12445;SDS011;6287;50.984;7.022;2023-04-03T04:05:15;2.00;;;1.67;;
12445;SDS011;6287;50.984;7.022;2023-04-03T04:07:47;3.20;;;1.80;;
12445;SDS011;6287;50.984;7.022;2023-04-03T04:10:12;3.43;;;1.97;;
12445;SDS011;6287;50.984;7.022;2023-04-03T04:12:38;1.60;;;1.50;;
12445;SDS011;6287;50.984;7.022;2023-04-03T04:15:04;1.70;;;1.60;;
12445;SDS011;6287;50.984;7.022;2023-04-03T04:17:33;4.27;;;1.63;;
12445;SDS011;6287;50.984;7.022;2023-04-03T04:20:02;2.73;;;1.70;;
12445;SDS011;6287;50.984;7.022;2023-04-03T04:22:30;1.43;;;1.37;;
12445;SDS011;6287;50.984;7.022;2023-04-03T04:24:56;1.87;;;1.70;;
12445;SDS011;6287;50.984;7.022;2023-04-03T04:27:22;1.80;;;1.67;;
12445;SDS011;6287;50.984;7.022;2023-04-03T04:29:50;1.50;;;1.40;;
12445;SDS011;6287;50.984;7.022;2023-04-03T04:32:15;2.80;;;1.33;;
12445;SDS011;6287;50.984;7.022;2023-04-03T04:34:41;4.73;;;2.17;;
12445;SDS011;6287;50.984;7.022;2023-04-03T04:37:09;1.23;;;1.20;;
12445;SDS011;6287;50.984;7.022;2023-04-03T04:39:35;4.73;;;1.33;;
12445;SDS011;6287;50.984;7.022;2023-04-03T04:42:00;1.63;;;1.50;;
12445;SDS011;6287;50.984;7.022;2023-04-03T04:44:28;1.73;;;1.50;;
12445;SDS011;6287;50.984;7.022;2023-04-03T04:46:54;1.70;;;1.60;;
12445;SDS011;6287;50.984;7.022;2023-04-03T04:49:19;1.87;;;1.40;;
12445;SDS011;6287;50.984;7.022;2023-04-03T04:51:45;1.90;;;1.73;;
12445;SDS011;6287;50.984;7.022;2023-04-03T04:54:10;2.10;;;1.30;;
12445;SDS011;6287;50.984;7.022;2023-04-03T04:56:36;4.30;;;1.40;;
12445;SDS011;6287;50.984;7.022;2023-04-03T04:59:02;1.50;;;1.40;;
12445;SDS011;6287;50.984;7.022;2023-04-03T05:01:27;1.33;;;1.30;;
12445;SDS011;6287;50.984;7.022;2023-04-03T05:03:53;2.17;;;1.70;;
12445;SDS011;6287;50.984;7.022;2023-04-03T05:06:19;1.47;;;1.30;;
12445;SDS011;6287;50.984;7.022;2023-04-03T05:08:45;2.37;;;1.40;;
12445;SDS011;6287;50.984;7.022;2023-04-03T05:11:10;1.37;;;1.27;;
12445;SDS011;6287;50.984;7.022;2023-04-03T05:13:39;3.23;;;1.40;;
12445;SDS011;6287;50.984;7.022;2023-04-03T05:16:06;3.43;;;1.73;;
12445;SDS011;6287;50.984;7.022;2023-04-03T05:18:32;1.80;;;1.40;;
12445;SDS011;6287;50.984;7.022;2023-04-03T05:21:00;2.00;;;1.40;;
12445;SDS011;6287;50.984;7.022;2023-04-03T05:23:26;3.80;;;1.50;;
12445;SDS011;6287;50.984;7.022;2023-04-03T05:25:51;2.87;;;1.43;;
12445;SDS011;6287;50.984;7.022;2023-04-03T05:28:18;1.83;;;1.30;;
12445;SDS011;6287;50.984;7.022;2023-04-03T05:30:43;1.13;;;1.10;;
12445;SDS011;6287;50.984;7.022;2023-04-03T05:33:09;1.23;;;1.23;;
12445;SDS011;6287;50.984;7.022;2023-04-03T05:35:37;1.33;;;1.23;;
12445;SDS011;6287;50.984;7.022;2023-04-03T05:38:06;2.60;;;1.37;;
12445;SDS011;6287;50.984;7.022;2023-04-03T05:40:32;1.50;;;1.40;;
12445;SDS011;6287;50.984;7.022;2023-04-03T05:43:00;1.73;;;1.20;;
12445;SDS011;6287;50.984;7.022;2023-04-03T05:45:26;1.50;;;1.40;;
12445;SDS011;6287;50.984;7.022;2023-04-03T05:47:51;1.43;;;1.33;;
12445;SDS011;6287;50.984;7.022;2023-04-03T05:50:20;1.37;;;1.27;;
12445;SDS011;6287;50.984;7.022;2023-04-03T05:52:46;1.40;;;1.30;;
12445;SDS011;6287;50.984;7.022;2023-04-03T05:55:18;1.67;;;1.40;;
12445;SDS011;6287;50.984;7.022;2023-04-03T05:57:46;1.80;;;1.70;;
12445;SDS011;6287;50.984;7.022;2023-04-03T06:00:15;1.73;;;1.60;;
12445;SDS011;6287;50.984;7.022;2023-04-03T06:02:41;2.17;;;1.70;;
12445;SDS011;6287;50.984;7.022;2023-04-03T06:05:07;2.87;;;1.60;;
12445;SDS011;6287;50.984;7.022;2023-04-03T06:07:33;1.40;;;1.30;;
12445;SDS011;6287;50.984;7.022;2023-04-03T06:09:59;1.43;;;1.43;;
12445;SDS011;6287;50.984;7.022;2023-04-03T06:12:26;1.30;;;1.20;;
12445;SDS011;6287;50.984;7.022;2023-04-03T06:14:56;3.63;;;1.50;;
12445;SDS011;6287;50.984;7.022;2023-04-03T06:17:24;1.53;;;1.37;;
12445;SDS011;6287;50.984;7.022;2023-04-03T06:19:52;1.63;;;1.53;;
12445;SDS011;6287;50.984;7.022;2023-04-03T06:22:18;1.40;;;1.30;;
12445;SDS011;6287;50.984;7.022;2023-04-03T06:24:43;2.17;;;1.30;;
12445;SDS011;6287;50.984;7.022;2023-04-03T06:27:11;1.57;;;1.30;;
12445;SDS011;6287;50.984;7.022;2023-04-03T06:29:37;2.20;;;1.33;;
12445;SDS011;6287;50.984;7.022;2023-04-03T06:32:03;2.80;;;1.20;;
12445;SDS011;6287;50.984;7.022;2023-04-03T06:34:31;1.87;;;1.30;;
12445;SDS011;6287;50.984;7.022;2023-04-03T06:36:57;2.97;;;1.50;;
12445;SDS011;6287;50.984;7.022;2023-04-03T06:39:22;1.13;;;1.10;;
12445;SDS011;6287;50.984;7.022;2023-04-03T06:41:50;1.80;;;1.30;;
12445;SDS011;6287;50.984;7.022;2023-04-03T06:44:16;1.80;;;1.33;;
12445;SDS011;6287;50.984;7.022;2023-04-03T06:46:42;1.20;;;1.10;;
12445;SDS011;6287;50.984;7.022;2023-04-03T06:49:10;1.53;;;1.20;;
12445;SDS011;6287;50.984;7.022;2023-04-03T06:51:36;1.50;;;1.40;;
12445;SDS011;6287;50.984;7.022;2023-04-03T06:54:05;2.73;;;1.40;;
12445;SDS011;6287;50.984;7.022;2023-04-03T06:56:33;2.33;;;1.00;;
12445;SDS011;6287;50.984;7.022;2023-04-03T06:58:59;1.20;;;1.20;;
12445;SDS011;6287;50.984;7.022;2023-04-03T07:01:26;1.37;;;1.20;;
12445;SDS011;6287;50.984;7.022;2023-04-03T07:03:53;1.47;;;1.37;;
12445;SDS011;6287;50.984;7.022;2023-04-03T07:06:23;0.80;;;0.80;;
12445;SDS011;6287;50.984;7.022;2023-04-03T07:08:52;0.97;;;0.97;;
12445;SDS011;6287;50.984;7.022;2023-04-03T07:11:17;1.30;;;1.20;;
12445;SDS011;6287;50.984;7.022;2023-04-03T07:13:43;1.23;;;0.80;;
12445;SDS011;6287;50.984;7.022;2023-04-03T07:16:14;1.50;;;1.27;;
12445;SDS011;6287;50.984;7.022;2023-04-03T07:18:40;1.70;;;1.10;;
12445;SDS011;6287;50.984;7.022;2023-04-03T07:21:06;2.70;;;1.20;;
12445;SDS011;6287;50.984;7.022;2023-04-03T07:23:32;1.73;;;1.00;;
12445;SDS011;6287;50.984;7.022;2023-04-03T07:25:58;1.80;;;1.23;;
12445;SDS011;6287;50.984;7.022;2023-04-03T07:28:24;1.50;;;1.10;;
12445;SDS011;6287;50.984;7.022;2023-04-03T07:30:51;1.57;;;1.13;;
12445;SDS011;6287;50.984;7.022;2023-04-03T07:33:25;1.03;;;0.80;;
12445;SDS011;6287;50.984;7.022;2023-04-03T07:35:51;1.23;;;1.13;;
12445;SDS011;6287;50.984;7.022;2023-04-03T07:38:19;1.53;;;0.90;;
12445;SDS011;6287;50.984;7.022;2023-04-03T07:40:46;1.33;;;1.23;;
12445;SDS011;6287;50.984;7.022;2023-04-03T07:43:13;1.10;;;1.00;;
12445;SDS011;6287;50.984;7.022;2023-04-03T07:45:39;1.33;;;1.23;;
12445;SDS011;6287;50.984;7.022;2023-04-03T07:48:05;0.93;;;0.87;;
12445;SDS011;6287;50.984;7.022;2023-04-03T07:50:31;2.90;;;1.20;;
12445;SDS011;6287;50.984;7.022;2023-04-03T07:52:57;1.67;;;1.30;;
12445;SDS011;6287;50.984;7.022;2023-04-03T07:55:28;4.03;;;1.10;;
12445;SDS011;6287;50.984;7.022;2023-04-03T07:57:59;2.93;;;0.87;;
12445;SDS011;6287;50.984;7.022;2023-04-03T08:00:25;0.97;;;0.80;;
12445;SDS011;6287;50.984;7.022;2023-04-03T08:02:55;1.13;;;0.97;;
12445;SDS011;6287;50.984;7.022;2023-04-03T08:05:21;2.10;;;1.10;;
12445;SDS011;6287;50.984;7.022;2023-04-03T08:07:48;1.17;;;0.87;;
12445;SDS011;6287;50.984;7.022;2023-04-03T08:10:14;0.93;;;0.90;;
12445;SDS011;6287;50.984;7.022;2023-04-03T08:12:40;0.80;;;0.70;;
12445;SDS011;6287;50.984;7.022;2023-04-03T08:15:08;3.03;;;1.10;;
12445;SDS011;6287;50.984;7.022;2023-04-03T08:17:34;1.43;;;0.83;;
12445;SDS011;6287;50.984;7.022;2023-04-03T08:20:03;2.53;;;1.40;;
12445;SDS011;6287;50.984;7.022;2023-04-03T08:22:35;1.70;;;1.50;;
12445;SDS011;6287;50.984;7.022;2023-04-03T08:25:01;1.73;;;1.30;;
12445;SDS011;6287;50.984;7.022;2023-04-03T08:27:29;1.00;;;0.90;;
12445;SDS011;6287;50.984;7.022;2023-04-03T08:29:55;1.13;;;0.60;;
12445;SDS011;6287;50.984;7.022;2023-04-03T08:32:21;2.30;;;1.03;;
12445;SDS011;6287;50.984;7.022;2023-04-03T08:34:52;3.03;;;0.80;;
12445;SDS011;6287;50.984;7.022;2023-04-03T08:37:22;2.33;;;1.13;;
12445;SDS011;6287;50.984;7.022;2023-04-03T08:39:48;1.73;;;0.70;;
12445;SDS011;6287;50.984;7.022;2023-04-03T08:42:15;1.70;;;0.83;;
12445;SDS011;6287;50.984;7.022;2023-04-03T08:50:13;1.03;;;0.70;;
12445;SDS011;6287;50.984;7.022;2023-04-03T08:53:01;1.13;;;0.60;;
12445;SDS011;6287;50.984;7.022;2023-04-03T08:55:34;0.40;;;0.40;;
12445;SDS011;6287;50.984;7.022;2023-04-03T09:03:24;0.67;;;0.67;;
12445;SDS011;6287;50.984;7.022;2023-04-03T09:08:26;1.03;;;0.80;;
12445;SDS011;6287;50.984;7.022;2023-04-03T09:17:03;0.60;;;0.60;;
12445;SDS011;6287;50.984;7.022;2023-04-03T09:19:47;0.50;;;0.50;;
12445;SDS011;6287;50.984;7.022;2023-04-03T09:22:46;1.03;;;0.70;;
12445;SDS011;6287;50.984;7.022;2023-04-03T09:25:18;0.70;;;0.70;;
12445;SDS011;6287;50.984;7.022;2023-04-03T09:27:49;0.70;;;0.70;;
12445;SDS011;6287;50.984;7.022;2023-04-03T09:30:16;1.60;;;0.80;;
12445;SDS011;6287;50.984;7.022;2023-04-03T09:32:47;1.13;;;0.67;;
12445;SDS011;6287;50.984;7.022;2023-04-03T09:35:19;1.23;;;0.70;;
12445;SDS011;6287;50.984;7.022;2023-04-03T09:37:53;0.93;;;0.77;;
12445;SDS011;6287;50.984;7.022;2023-04-03T09:42:53;0.80;;;0.73;;
12445;SDS011;6287;50.984;7.022;2023-04-03T09:45:27;1.27;;;0.50;;
12445;SDS011;6287;50.984;7.022;2023-04-03T09:48:04;0.97;;;0.60;;
12445;SDS011;6287;50.984;7.022;2023-04-03T09:50:30;1.07;;;0.80;;
12445;SDS011;6287;50.984;7.022;2023-04-03T09:52:55;1.70;;;0.80;;
12445;SDS011;6287;50.984;7.022;2023-04-03T09:58:02;1.30;;;0.80;;
12445;SDS011;6287;50.984;7.022;2023-04-03T10:00:36;0.63;;;0.60;;
12445;SDS011;6287;50.984;7.022;2023-04-03T10:03:05;1.00;;;0.70;;
12445;SDS011;6287;50.984;7.022;2023-04-03T10:05:46;2.70;;;1.10;;
12445;SDS011;6287;50.984;7.022;2023-04-03T10:10:43;0.90;;;0.90;;
12445;SDS011;6287;50.984;7.022;2023-04-03T10:15:42;0.73;;;0.63;;
12445;SDS011;6287;50.984;7.022;2023-04-03T10:18:22;0.70;;;0.70;;
12445;SDS011;6287;50.984;7.022;2023-04-03T10:24:13;0.90;;;0.70;;
12445;SDS011;6287;50.984;7.022;2023-04-03T10:29:30;2.30;;;0.70;;
12445;SDS011;6287;50.984;7.022;2023-04-03T10:40:27;1.83;;;0.73;;
12445;SDS011;6287;50.984;7.022;2023-04-03T10:43:14;1.23;;;0.70;;
12445;SDS011;6287;50.984;7.022;2023-04-03T10:46:01;3.40;;;1.00;;
12445;SDS011;6287;50.984;7.022;2023-04-03T10:48:35;1.07;;;0.50;;
12445;SDS011;6287;50.984;7.022;2023-04-03T10:54:08;1.13;;;0.50;;
12445;SDS011;6287;50.984;7.022;2023-04-03T10:56:41;0.53;;;0.53;;
12445;SDS011;6287;50.984;7.022;2023-04-03T11:01:54;0.40;;;0.40;;
12445;SDS011;6287;50.984;7.022;2023-04-03T11:04:27;0.60;;;0.60;;
12445;SDS011;6287;50.984;7.022;2023-04-03T11:07:04;0.67;;;0.50;;
12445;SDS011;6287;50.984;7.022;2023-04-03T11:09:39;0.87;;;0.50;;
12445;SDS011;6287;50.984;7.022;2023-04-03T11:12:16;0.60;;;0.60;;
12445;SDS011;6287;50.984;7.022;2023-04-03T11:14:51;0.63;;;0.50;;
12445;SDS011;6287;50.984;7.022;2023-04-03T11:25:36;1.43;;;0.60;;
12445;SDS011;6287;50.984;7.022;2023-04-03T11:28:11;0.67;;;0.60;;
12445;SDS011;6287;50.984;7.022;2023-04-03T11:38:47;1.30;;;0.50;;
12445;SDS011;6287;50.984;7.022;2023-04-03T11:41:25;0.50;;;0.50;;
12445;SDS011;6287;50.984;7.022;2023-04-03T11:44:24;0.50;;;0.40;;
12445;SDS011;6287;50.984;7.022;2023-04-03T11:46:58;1.07;;;0.40;;
12445;SDS011;6287;50.984;7.022;2023-04-03T12:05:51;0.80;;;0.33;;
12445;SDS011;6287;50.984;7.022;2023-04-03T12:23:56;2.67;;;0.90;;
12445;SDS011;6287;50.984;7.022;2023-04-03T12:26:31;2.40;;;0.67;;
12445;SDS011;6287;50.984;7.022;2023-04-03T12:48:20;0.40;;;0.40;;
12445;SDS011;6287;50.984;7.022;2023-04-03T12:50:52;0.53;;;0.40;;
12445;SDS011;6287;50.984;7.022;2023-04-03T12:53:21;0.60;;;0.43;;
12445;SDS011;6287;50.984;7.022;2023-04-03T12:55:55;0.73;;;0.57;;
12445;SDS011;6287;50.984;7.022;2023-04-03T12:58:23;0.47;;;0.40;;
12445;SDS011;6287;50.984;7.022;2023-04-03T13:01:03;0.40;;;0.40;;
12445;SDS011;6287;50.984;7.022;2023-04-03T13:03:43;1.33;;;0.40;;
12445;SDS011;6287;50.984;7.022;2023-04-03T13:06:14;0.50;;;0.40;;
12445;SDS011;6287;50.984;7.022;2023-04-03T13:08:57;1.70;;;0.47;;
12445;SDS011;6287;50.984;7.022;2023-04-03T13:11:25;0.80;;;0.80;;
12445;SDS011;6287;50.984;7.022;2023-04-03T13:14:01;0.60;;;0.50;;
12445;SDS011;6287;50.984;7.022;2023-04-03T13:16:31;0.77;;;0.47;;
12445;SDS011;6287;50.984;7.022;2023-04-03T13:18:58;0.90;;;0.37;;
12445;SDS011;6287;50.984;7.022;2023-04-03T13:21:25;0.70;;;0.50;;
12445;SDS011;6287;50.984;7.022;2023-04-03T13:23:57;1.10;;;0.40;;
12445;SDS011;6287;50.984;7.022;2023-04-03T13:26:31;0.75;;;0.40;;
12445;SDS011;6287;50.984;7.022;2023-04-03T13:29:02;0.50;;;0.50;;
12445;SDS011;6287;50.984;7.022;2023-04-03T13:31:32;0.50;;;0.50;;
12445;SDS011;6287;50.984;7.022;2023-04-03T13:36:46;1.08;;;0.63;;
12445;SDS011;6287;50.984;7.022;2023-04-03T13:39:28;0.50;;;0.50;;
12445;SDS011;6287;50.984;7.022;2023-04-03T13:41:57;1.00;;;0.63;;
12445;SDS011;6287;50.984;7.022;2023-04-03T13:44:36;0.85;;;0.50;;
12445;SDS011;6287;50.984;7.022;2023-04-03T13:52:31;0.43;;;0.43;;
12445;SDS011;6287;50.984;7.022;2023-04-03T13:55:14;1.42;;;0.60;;
12445;SDS011;6287;50.984;7.022;2023-04-03T13:58:20;0.40;;;0.40;;
12445;SDS011;6287;50.984;7.022;2023-04-03T14:00:37;1.08;;;0.60;;
12445;SDS011;6287;50.984;7.022;2023-04-03T14:05:45;1.10;;;0.57;;
12445;SDS011;6287;50.984;7.022;2023-04-03T14:08:13;0.80;;;0.63;;
12445;SDS011;6287;50.984;7.022;2023-04-03T14:10:42;1.67;;;0.77;;
12445;SDS011;6287;50.984;7.022;2023-04-03T14:13:10;1.67;;;0.73;;
12445;SDS011;6287;50.984;7.022;2023-04-03T14:15:41;0.70;;;0.50;;
12445;SDS011;6287;50.984;7.022;2023-04-03T14:18:13;0.50;;;0.40;;
12445;SDS011;6287;50.984;7.022;2023-04-03T14:20:42;1.58;;;0.77;;
12445;SDS011;6287;50.984;7.022;2023-04-03T14:23:15;1.00;;;0.45;;
12445;SDS011;6287;50.984;7.022;2023-04-03T14:25:43;0.70;;;0.52;;
12445;SDS011;6287;50.984;7.022;2023-04-03T14:28:20;0.98;;;0.65;;
12445;SDS011;6287;50.984;7.022;2023-04-03T14:30:51;0.60;;;0.50;;
12445;SDS011;6287;50.984;7.022;2023-04-03T14:33:18;1.15;;;0.65;;
12445;SDS011;6287;50.984;7.022;2023-04-03T14:35:46;0.50;;;0.50;;
12445;SDS011;6287;50.984;7.022;2023-04-03T14:38:31;1.02;;;0.57;;
12445;SDS011;6287;50.984;7.022;2023-04-03T14:40:57;1.48;;;0.73;;
12445;SDS011;6287;50.984;7.022;2023-04-03T14:43:24;0.93;;;0.55;;
12445;SDS011;6287;50.984;7.022;2023-04-03T14:45:51;0.60;;;0.60;;
12445;SDS011;6287;50.984;7.022;2023-04-03T14:48:23;1.13;;;0.60;;
12445;SDS011;6287;50.984;7.022;2023-04-03T14:50:51;0.55;;;0.50;;
12445;SDS011;6287;50.984;7.022;2023-04-03T14:53:18;0.77;;;0.40;;
12445;SDS011;6287;50.984;7.022;2023-04-03T14:55:47;0.50;;;0.50;;
12445;SDS011;6287;50.984;7.022;2023-04-03T14:58:15;1.15;;;0.45;;
12445;SDS011;6287;50.984;7.022;2023-04-03T15:00:43;0.57;;;0.40;;
12445;SDS011;6287;50.984;7.022;2023-04-03T15:03:13;0.73;;;0.60;;
12445;SDS011;6287;50.984;7.022;2023-04-03T15:05:43;2.45;;;0.68;;
12445;SDS011;6287;50.984;7.022;2023-04-03T15:08:17;1.85;;;0.60;;
12445;SDS011;6287;50.984;7.022;2023-04-03T15:10:45;2.28;;;0.57;;
12445;SDS011;6287;50.984;7.022;2023-04-03T15:13:11;0.63;;;0.50;;
12445;SDS011;6287;50.984;7.022;2023-04-03T15:15:40;1.30;;;0.60;;
12445;SDS011;6287;50.984;7.022;2023-04-03T15:18:07;0.82;;;0.60;;
12445;SDS011;6287;50.984;7.022;2023-04-03T15:20:41;0.40;;;0.40;;
12445;SDS011;6287;50.984;7.022;2023-04-03T15:23:08;1.55;;;0.65;;
12445;SDS011;6287;50.984;7.022;2023-04-03T15:25:36;1.42;;;0.50;;
12445;SDS011;6287;50.984;7.022;2023-04-03T15:28:02;0.50;;;0.50;;
12445;SDS011;6287;50.984;7.022;2023-04-03T15:30:30;1.05;;;0.60;;
12445;SDS011;6287;50.984;7.022;2023-04-03T15:32:56;0.65;;;0.43;;
12445;SDS011;6287;50.984;7.022;2023-04-03T15:35:22;0.73;;;0.68;;
12445;SDS011;6287;50.984;7.022;2023-04-03T15:37:51;0.65;;;0.55;;
12445;SDS011;6287;50.984;7.022;2023-04-03T15:40:17;0.73;;;0.60;;
12445;SDS011;6287;50.984;7.022;2023-04-03T15:42:46;0.63;;;0.63;;
12445;SDS011;6287;50.984;7.022;2023-04-03T15:45:12;1.42;;;0.73;;
12445;SDS011;6287;50.984;7.022;2023-04-03T15:47:38;1.52;;;0.65;;
12445;SDS011;6287;50.984;7.022;2023-04-03T15:50:05;0.88;;;0.50;;
12445;SDS011;6287;50.984;7.022;2023-04-03T15:52:32;1.55;;;0.63;;
12445;SDS011;6287;50.984;7.022;2023-04-03T15:54:58;1.08;;;0.73;;
12445;SDS011;6287;50.984;7.022;2023-04-03T15:57:28;1.33;;;0.80;;
12445;SDS011;6287;50.984;7.022;2023-04-03T15:59:56;0.85;;;0.50;;
12445;SDS011;6287;50.984;7.022;2023-04-03T16:02:24;1.10;;;0.60;;
12445;SDS011;6287;50.984;7.022;2023-04-03T16:04:52;0.70;;;0.70;;
12445;SDS011;6287;50.984;7.022;2023-04-03T16:07:19;0.52;;;0.52;;
12445;SDS011;6287;50.984;7.022;2023-04-03T16:09:45;2.78;;;0.77;;
12445;SDS011;6287;50.984;7.022;2023-04-03T16:12:13;1.55;;;0.68;;
12445;SDS011;6287;50.984;7.022;2023-04-03T16:14:38;1.98;;;0.70;;
12445;SDS011;6287;50.984;7.022;2023-04-03T16:17:04;1.58;;;0.70;;
12445;SDS011;6287;50.984;7.022;2023-04-03T16:19:34;1.03;;;0.70;;
12445;SDS011;6287;50.984;7.022;2023-04-03T16:22:00;0.60;;;0.60;;
12445;SDS011;6287;50.984;7.022;2023-04-03T16:24:28;1.83;;;0.70;;
12445;SDS011;6287;50.984;7.022;2023-04-03T16:26:54;1.02;;;0.47;;
12445;SDS011;6287;50.984;7.022;2023-04-03T16:29:23;1.70;;;0.67;;
12445;SDS011;6287;50.984;7.022;2023-04-03T16:31:56;0.47;;;0.47;;
12445;SDS011;6287;50.984;7.022;2023-04-03T16:34:23;0.90;;;0.67;;
12445;SDS011;6287;50.984;7.022;2023-04-03T16:36:52;0.60;;;0.60;;
12445;SDS011;6287;50.984;7.022;2023-04-03T16:39:18;0.60;;;0.60;;
12445;SDS011;6287;50.984;7.022;2023-04-03T16:41:51;1.37;;;0.67;;
12445;SDS011;6287;50.984;7.022;2023-04-03T16:44:17;1.00;;;0.77;;
12445;SDS011;6287;50.984;7.022;2023-04-03T16:46:44;0.97;;;0.57;;
12445;SDS011;6287;50.984;7.022;2023-04-03T16:49:10;2.23;;;0.70;;
12445;SDS011;6287;50.984;7.022;2023-04-03T16:51:36;1.40;;;0.63;;
12445;SDS011;6287;50.984;7.022;2023-04-03T16:54:02;0.90;;;0.70;;
12445;SDS011;6287;50.984;7.022;2023-04-03T16:56:28;1.93;;;0.77;;
12445;SDS011;6287;50.984;7.022;2023-04-03T16:58:56;1.70;;;0.80;;
12445;SDS011;6287;50.984;7.022;2023-04-03T17:01:24;1.43;;;0.70;;
12445;SDS011;6287;50.984;7.022;2023-04-03T17:03:50;0.73;;;0.70;;
12445;SDS011;6287;50.984;7.022;2023-04-03T17:06:18;0.87;;;0.70;;
12445;SDS011;6287;50.984;7.022;2023-04-03T17:08:46;0.67;;;0.40;;
12445;SDS011;6287;50.984;7.022;2023-04-03T17:11:14;0.80;;;0.70;;
12445;SDS011;6287;50.984;7.022;2023-04-03T17:13:42;0.70;;;0.70;;
12445;SDS011;6287;50.984;7.022;2023-04-03T17:16:09;2.10;;;0.80;;
12445;SDS011;6287;50.984;7.022;2023-04-03T17:18:38;1.27;;;0.60;;
12445;SDS011;6287;50.984;7.022;2023-04-03T17:21:09;0.87;;;0.80;;
12445;SDS011;6287;50.984;7.022;2023-04-03T17:23:36;0.60;;;0.60;;
12445;SDS011;6287;50.984;7.022;2023-04-03T17:26:03;1.60;;;0.80;;
12445;SDS011;6287;50.984;7.022;2023-04-03T17:28:34;0.93;;;0.53;;
12445;SDS011;6287;50.984;7.022;2023-04-03T17:31:05;0.83;;;0.80;;
12445;SDS011;6287;50.984;7.022;2023-04-03T17:33:31;0.70;;;0.70;;